createdAt,value
2022-10-23T00:01:43.039Z,12.60
2022-10-23T00:04:17.811Z,12.70
2022-10-23T00:06:45.725Z,12.60
2022-10-23T00:09:16.102Z,12.50
2022-10-23T00:11:44.857Z,12.40
2022-10-23T00:16:39.907Z,12.50
2022-10-23T00:21:34.956Z,12.50
2022-10-23T00:31:27.629Z,12.40
2022-10-23T00:41:28.441Z,12.40
2022-10-23T00:44:30.512Z,13.80
2022-10-23T00:46:59.116Z,12.30
2022-10-23T00:52:04.522Z,12.20
2022-10-23T00:54:39.070Z,12.20
2022-10-23T00:57:11.815Z,12.20
2022-10-23T01:02:07.600Z,12.20
2022-10-23T01:07:20.398Z,12.10
2022-10-23T01:09:58.086Z,12.10
2022-10-23T01:12:43.485Z,10.10
2022-10-23T01:15:32.149Z,12.00
2022-10-23T01:18:17.048Z,12.60
2022-10-23T01:20:55.341Z,12.00
2022-10-23T01:23:58.885Z,11.90
2022-10-23T01:26:41.037Z,11.90
2022-10-23T01:29:25.533Z,11.90
2022-10-23T01:32:16.674Z,11.80
2022-10-23T01:34:52.106Z,13.00
2022-10-23T01:37:27.976Z,11.80
2022-10-23T01:40:03.611Z,11.70
2022-10-23T01:42:38.490Z,11.70
2022-10-23T01:45:16.181Z,11.70
2022-10-23T01:47:45.534Z,11.70
2022-10-23T01:50:18.857Z,12.00
2022-10-23T01:57:48.624Z,11.60
2022-10-23T02:00:18.794Z,11.50
2022-10-23T02:02:54.098Z,11.50
2022-10-23T02:05:29.079Z,11.50
2022-10-23T02:07:58.718Z,11.50
2022-10-23T02:10:47.961Z,12.70
2022-10-23T02:13:43.834Z,11.50
2022-10-23T02:16:26.057Z,11.50
2022-10-23T02:19:18.143Z,12.20
2022-10-23T02:22:10.914Z,11.50
2022-10-23T02:24:57.866Z,11.80
2022-10-23T02:27:35.706Z,11.40
2022-10-23T02:30:12.008Z,11.80
2022-10-23T02:32:42.136Z,11.40
2022-10-23T02:40:10.762Z,11.30
2022-10-23T02:43:08.567Z,11.30
2022-10-23T02:45:54.275Z,11.50
2022-10-23T02:48:25.571Z,11.20
2022-10-23T02:51:03.656Z,12.40
2022-10-23T02:54:02.301Z,11.20
2022-10-23T02:56:53.526Z,11.20
2022-10-23T02:59:37.305Z,11.20
2022-10-23T03:02:21.421Z,11.20
2022-10-23T03:07:19.604Z,11.10
2022-10-23T03:14:42.156Z,11.10
2022-10-23T03:17:10.143Z,11.00
2022-10-23T03:27:00.339Z,10.90
2022-10-23T03:29:32.023Z,10.90
2022-10-23T03:31:58.956Z,13.00
2022-10-23T03:39:22.366Z,10.90
2022-10-23T03:41:49.647Z,12.00
2022-10-23T03:54:12.011Z,10.90
2022-10-23T03:59:08.736Z,10.90
2022-10-23T04:11:27.270Z,10.90
2022-10-23T04:26:17.761Z,11.10
2022-10-23T04:36:25.525Z,11.10
2022-10-23T04:41:20.908Z,11.00
2022-10-23T05:10:24.989Z,10.90
2022-10-23T05:13:02.797Z,10.80
2022-10-23T05:18:10.948Z,10.70
2022-10-23T05:23:11.725Z,10.80
2022-10-23T05:33:14.988Z,10.70
2022-10-23T05:35:44.876Z,10.70
2022-10-23T05:38:15.180Z,10.70
2022-10-23T05:56:35.668Z,10.80
2022-10-23T06:07:24.525Z,10.70
2022-10-23T06:09:53.750Z,11.30
2022-10-23T06:12:22.545Z,10.70
2022-10-23T06:17:23.588Z,10.70
2022-10-23T06:35:09.090Z,10.60
2022-10-23T06:43:08.770Z,10.60
2022-10-23T07:01:38.325Z,10.70
2022-10-23T07:27:38.546Z,10.80
2022-10-23T07:30:08.868Z,10.70
2022-10-23T07:32:44.820Z,11.00
2022-10-23T07:38:09.554Z,10.60
2022-10-23T07:43:11.654Z,11.00
2022-10-23T07:48:15.995Z,11.20
2022-10-23T07:51:10.793Z,11.20
2022-10-23T07:53:44.871Z,11.20
2022-10-23T07:59:19.919Z,11.40
2022-10-23T08:09:46.338Z,11.60
2022-10-23T08:12:13.691Z,11.60
2022-10-23T08:17:10.040Z,12.20
2022-10-23T08:24:57.975Z,12.20
2022-10-23T08:32:22.332Z,11.70
2022-10-23T08:35:05.898Z,11.80
2022-10-23T08:37:34.513Z,12.20
2022-10-23T08:40:03.458Z,12.20
2022-10-23T08:43:20.698Z,12.80
2022-10-23T08:46:08.572Z,12.00
2022-10-23T08:49:13.658Z,13.80
2022-10-23T08:51:57.630Z,12.10
2022-10-23T08:54:33.531Z,13.50
2022-10-23T08:57:15.431Z,12.90
2022-10-23T08:59:54.622Z,12.40
2022-10-23T09:02:32.924Z,13.40
2022-10-23T09:05:00.119Z,12.50
2022-10-23T09:07:46.830Z,11.50
2022-10-23T09:10:51.400Z,12.50
2022-10-23T09:13:36.458Z,12.40
2022-10-23T09:16:16.838Z,12.60
2022-10-23T09:18:47.788Z,12.40
2022-10-23T09:21:15.196Z,11.20
2022-10-23T09:23:42.939Z,13.20
2022-10-23T09:26:16.560Z,13.50
2022-10-23T09:29:02.566Z,13.90
2022-10-23T09:31:30.020Z,14.10
2022-10-23T09:33:59.834Z,12.80
2022-10-23T09:36:29.723Z,14.50
2022-10-23T09:39:00.031Z,13.30
2022-10-23T09:41:34.914Z,13.40
2022-10-23T09:44:08.860Z,13.50
2022-10-23T09:49:07.686Z,14.40
2022-10-23T09:56:42.031Z,14.50
2022-10-23T09:59:13.602Z,14.60
2022-10-23T10:02:20.654Z,13.50
2022-10-23T10:05:26.978Z,14.60
2022-10-23T10:08:05.379Z,14.70
2022-10-23T10:10:41.886Z,14.90
2022-10-23T10:13:38.298Z,15.20
2022-10-23T10:16:23.523Z,15.60
2022-10-23T10:19:30.500Z,15.90
2022-10-23T10:22:40.699Z,16.00
2022-10-23T10:25:20.291Z,15.90
2022-10-23T10:28:04.804Z,15.90
2022-10-23T10:30:57.796Z,15.80
2022-10-23T10:33:35.990Z,15.80
2022-10-23T10:36:29.496Z,15.20
2022-10-23T10:39:09.263Z,15.80
2022-10-23T10:42:13.135Z,15.90
2022-10-23T10:45:00.667Z,16.10
2022-10-23T10:47:47.628Z,16.30
2022-10-23T10:50:47.062Z,16.20
2022-10-23T10:53:41.555Z,16.60
2022-10-23T10:56:14.599Z,16.90
2022-10-23T10:58:51.308Z,17.00
2022-10-23T11:01:56.742Z,18.20
2022-10-23T11:04:41.204Z,17.50
2022-10-23T11:07:13.251Z,17.80
2022-10-23T11:09:42.177Z,18.00
2022-10-23T11:12:28.387Z,18.00
2022-10-23T11:14:56.729Z,18.60
2022-10-23T11:17:29.011Z,18.10
2022-10-23T11:20:10.243Z,18.10
2022-10-23T11:22:43.008Z,18.10
2022-10-23T11:25:44.234Z,18.00
2022-10-23T11:28:39.500Z,17.80
2022-10-23T11:31:21.272Z,17.70
2022-10-23T11:34:03.544Z,17.60
2022-10-23T11:36:51.031Z,17.60
2022-10-23T11:39:18.727Z,17.90
2022-10-23T11:42:09.549Z,17.80
2022-10-23T11:44:47.255Z,17.70
2022-10-23T11:47:40.132Z,17.70
2022-10-23T11:50:12.402Z,17.50
2022-10-23T11:53:15.381Z,17.50
2022-10-23T11:56:00.237Z,17.40
2022-10-23T11:58:40.680Z,17.30
2022-10-23T12:01:24.313Z,18.60
2022-10-23T12:04:00.831Z,17.20
2022-10-23T12:06:33.556Z,17.20
2022-10-23T12:09:18.381Z,17.20
2022-10-23T12:11:49.660Z,17.80
2022-10-23T12:19:14.949Z,17.20
2022-10-23T12:21:42.976Z,17.30
2022-10-23T12:24:15.720Z,17.10
2022-10-23T12:27:21.501Z,17.10
2022-10-23T12:30:02.878Z,17.00
2022-10-23T12:32:57.877Z,16.90
2022-10-23T12:35:35.220Z,17.00
2022-10-23T12:38:26.697Z,17.00
2022-10-23T12:41:11.103Z,17.00
2022-10-23T12:43:39.629Z,17.00
2022-10-23T12:46:22.652Z,17.20
2022-10-23T12:49:03.992Z,17.30
2022-10-23T12:51:35.817Z,16.90
2022-10-23T12:54:04.744Z,17.00
2022-10-23T12:56:39.977Z,16.60
2022-10-23T12:59:18.502Z,16.80
2022-10-23T13:01:48.118Z,16.90
2022-10-23T13:04:35.249Z,17.30
2022-10-23T13:07:03.847Z,16.90
2022-10-23T13:09:40.968Z,17.00
2022-10-23T13:12:33.805Z,17.40
2022-10-23T13:15:03.574Z,17.10
2022-10-23T13:17:59.958Z,18.50
2022-10-23T13:20:34.693Z,16.70
2022-10-23T13:23:19.577Z,17.40
2022-10-23T13:25:58.225Z,17.00
2022-10-23T13:28:29.485Z,16.80
2022-10-23T13:31:10.577Z,16.80
2022-10-23T13:33:40.529Z,16.80
2022-10-23T13:36:13.594Z,16.80
2022-10-23T13:38:42.545Z,18.20
2022-10-23T13:41:38.005Z,16.70
2022-10-23T13:44:07.802Z,16.50
2022-10-23T13:46:35.599Z,15.80
2022-10-23T13:49:05.810Z,16.50
2022-10-23T13:51:42.653Z,16.40
2022-10-23T13:54:18.868Z,16.40
2022-10-23T13:56:47.797Z,16.20
2022-10-23T13:59:15.889Z,16.20
2022-10-23T14:01:44.931Z,16.70
2022-10-23T14:04:15.392Z,16.10
2022-10-23T14:06:42.969Z,17.10
2022-10-23T14:09:15.455Z,16.00
2022-10-23T14:11:43.969Z,16.60
2022-10-23T14:14:11.491Z,16.00
2022-10-23T14:16:41.344Z,16.00
2022-10-23T14:19:10.602Z,15.90
2022-10-23T14:21:37.914Z,17.70
2022-10-23T14:24:10.058Z,15.80
2022-10-23T14:26:38.139Z,15.90
2022-10-23T14:29:10.280Z,15.70
2022-10-23T14:31:43.935Z,15.80
2022-10-23T14:34:15.155Z,15.70
2022-10-23T14:36:49.863Z,16.60
2022-10-23T14:47:54.826Z,15.60
2022-10-23T14:57:04.478Z,15.50
2022-10-23T15:04:14.376Z,15.50
2022-10-23T15:06:41.903Z,15.40
2022-10-23T15:09:09.303Z,15.30
2022-10-23T15:11:36.347Z,15.30
2022-10-23T15:14:03.325Z,15.30
2022-10-23T15:16:30.806Z,15.10
2022-10-23T15:18:57.770Z,15.20
2022-10-23T15:21:24.727Z,15.20
2022-10-23T15:23:52.892Z,15.10
2022-10-23T15:26:22.782Z,15.00
2022-10-23T15:28:57.129Z,15.00
2022-10-23T15:31:29.979Z,14.90
2022-10-23T15:34:00.314Z,14.90
2022-10-23T15:36:27.186Z,14.90
2022-10-23T15:38:54.075Z,15.00
2022-10-23T15:41:27.646Z,14.90
2022-10-23T15:43:54.831Z,14.80
2022-10-23T15:46:21.760Z,14.80
2022-10-23T15:48:48.714Z,14.80
2022-10-23T15:51:15.740Z,14.80
2022-10-23T15:53:43.341Z,14.80
2022-10-23T15:56:10.336Z,14.80
2022-10-23T15:58:37.119Z,14.70
2022-10-23T16:01:06.498Z,14.70
2022-10-23T16:03:38.680Z,14.60
2022-10-23T16:06:13.787Z,14.60
2022-10-23T16:08:41.558Z,14.60
2022-10-23T16:11:18.642Z,14.40
2022-10-23T16:13:46.412Z,14.50
2022-10-23T16:16:13.759Z,14.50
2022-10-23T16:18:41.347Z,14.50
2022-10-23T16:21:15.494Z,14.60
2022-10-23T16:23:42.435Z,14.60
2022-10-23T16:26:09.283Z,14.90
2022-10-23T16:28:37.638Z,14.50
2022-10-23T16:31:19.374Z,14.60
2022-10-23T16:33:48.204Z,14.50
2022-10-23T16:36:15.775Z,14.50
2022-10-23T16:39:03.541Z,14.50
2022-10-23T16:41:48.908Z,14.40
2022-10-23T16:44:18.627Z,14.40
2022-10-23T16:46:57.622Z,14.40
2022-10-23T16:49:24.751Z,14.40
2022-10-23T16:51:51.756Z,14.40
2022-10-23T16:54:18.992Z,14.40
2022-10-23T16:56:46.116Z,14.30
2022-10-23T16:59:13.063Z,14.30
2022-10-23T17:01:40.499Z,14.30
2022-10-23T17:04:08.627Z,14.20
2022-10-23T17:06:36.176Z,14.20
2022-10-23T17:09:05.139Z,14.20
2022-10-23T17:11:35.680Z,14.00
2022-10-23T17:14:15.917Z,14.10
2022-10-23T17:16:48.511Z,14.10
2022-10-23T17:19:39.744Z,14.10
2022-10-23T17:22:10.549Z,14.00
2022-10-23T17:24:41.848Z,14.10
2022-10-23T17:27:08.985Z,14.10
2022-10-23T17:29:36.034Z,14.20
2022-10-23T17:32:03.472Z,14.10
2022-10-23T17:34:30.388Z,14.10
2022-10-23T17:36:57.451Z,14.10
2022-10-23T17:39:26.730Z,14.10
2022-10-23T17:41:54.191Z,14.10
2022-10-23T17:44:21.258Z,14.10
2022-10-23T17:46:55.406Z,14.00
2022-10-23T17:49:23.881Z,14.00
2022-10-23T17:51:53.604Z,14.10
2022-10-23T17:54:20.823Z,14.10
2022-10-23T17:56:47.780Z,14.10
2022-10-23T17:59:18.757Z,14.10
2022-10-23T18:01:48.294Z,14.10
2022-10-23T18:04:16.331Z,14.10
2022-10-23T18:06:47.133Z,14.10
2022-10-23T18:09:14.210Z,14.10
2022-10-23T18:11:45.543Z,14.10
2022-10-23T18:14:16.323Z,14.20
2022-10-23T18:16:43.368Z,14.10
2022-10-23T18:19:10.886Z,14.10
2022-10-23T18:21:38.060Z,13.90
2022-10-23T18:24:05.304Z,14.00
2022-10-23T18:26:39.125Z,14.00
2022-10-23T18:29:10.008Z,14.00
2022-10-23T18:31:38.057Z,13.90
2022-10-23T18:34:07.629Z,14.00
2022-10-23T18:36:38.458Z,13.90
2022-10-23T18:39:08.265Z,14.00
2022-10-23T18:41:40.743Z,14.00
2022-10-23T18:44:08.685Z,13.90
2022-10-23T18:46:36.340Z,13.90
2022-10-23T18:49:03.692Z,13.90
2022-10-23T18:51:32.844Z,13.90
2022-10-23T18:54:09.032Z,13.90
2022-10-23T18:56:36.127Z,13.90
2022-10-23T18:59:05.332Z,13.90
2022-10-23T19:01:33.035Z,13.90
2022-10-23T19:04:02.028Z,13.90
2022-10-23T19:06:33.155Z,13.90
2022-10-23T19:09:00.208Z,14.00
2022-10-23T19:11:28.209Z,14.00
2022-10-23T19:13:55.365Z,14.00
2022-10-23T19:16:22.317Z,14.00
2022-10-23T19:18:57.565Z,14.00
2022-10-23T19:21:31.071Z,14.10
2022-10-23T19:24:04.484Z,14.10
2022-10-23T19:26:35.316Z,14.00
2022-10-23T19:29:03.285Z,14.10
2022-10-23T19:31:30.816Z,14.10
2022-10-23T19:33:57.764Z,14.20
2022-10-23T19:36:24.849Z,14.20
2022-10-23T19:38:51.733Z,14.20
2022-10-23T19:41:18.963Z,14.20
2022-10-23T19:43:45.924Z,14.20
2022-10-23T19:46:12.810Z,14.20
2022-10-23T19:48:44.172Z,14.40
2022-10-23T19:51:12.956Z,14.30
2022-10-23T19:53:41.182Z,15.00
2022-10-23T19:56:10.540Z,14.30
2022-10-23T19:58:38.212Z,14.30
2022-10-23T20:01:11.944Z,13.80
2022-10-23T20:03:41.399Z,14.20
2022-10-23T20:06:16.797Z,14.20
2022-10-23T20:08:57.001Z,14.30
2022-10-23T20:14:25.800Z,14.20
2022-10-23T20:17:02.121Z,13.80
2022-10-23T20:19:38.311Z,14.20
2022-10-23T20:22:11.471Z,13.30
2022-10-23T20:24:42.709Z,14.30
2022-10-23T20:27:18.416Z,14.20
2022-10-23T20:29:48.950Z,15.50
2022-10-23T20:32:16.924Z,14.40
2022-10-23T20:37:19.908Z,13.80
2022-10-23T20:40:02.816Z,14.10
2022-10-23T20:42:33.493Z,14.20
2022-10-23T20:45:22.537Z,14.00
2022-10-23T20:47:59.917Z,14.30
2022-10-23T20:50:43.822Z,12.90
2022-10-23T20:53:40.366Z,14.90
2022-10-23T20:56:10.256Z,14.30
2022-10-23T20:58:45.168Z,14.20
2022-10-23T21:01:43.502Z,13.70
2022-10-23T21:04:18.517Z,14.30
2022-10-23T21:07:15.088Z,14.40
2022-10-23T21:10:11.645Z,11.70
2022-10-23T21:13:23.926Z,14.30
2022-10-23T21:18:46.419Z,14.30
2022-10-23T21:21:23.806Z,14.30
2022-10-23T21:25:31.075Z,13.10
2022-10-23T21:27:50.209Z,14.30
2022-10-23T21:30:32.821Z,14.20
2022-10-23T21:33:26.111Z,14.30
2022-10-23T21:36:21.035Z,13.40
2022-10-23T21:39:25.370Z,14.40
2022-10-23T21:45:58.865Z,14.10
2022-10-23T21:48:48.406Z,14.00
2022-10-23T21:51:44.528Z,14.00
2022-10-23T21:54:22.394Z,14.10
2022-10-23T21:56:54.139Z,14.00
2022-10-23T21:59:27.664Z,14.00
2022-10-23T22:01:58.547Z,14.20
2022-10-23T22:04:25.838Z,14.00
2022-10-23T22:09:22.182Z,14.00
2022-10-23T22:11:50.692Z,15.20
2022-10-23T22:16:46.394Z,14.00
2022-10-23T22:19:15.615Z,14.00
2022-10-23T22:26:41.838Z,14.00
2022-10-23T22:29:12.548Z,14.00
2022-10-23T22:31:44.169Z,14.00
2022-10-23T22:34:25.380Z,13.90
2022-10-23T22:39:23.151Z,14.00
2022-10-23T22:54:10.882Z,14.00
2022-10-23T22:56:38.335Z,14.10
2022-10-23T22:59:05.800Z,14.10
2022-10-23T23:01:42.632Z,14.10
2022-10-23T23:04:36.884Z,14.00
2022-10-23T23:09:27.708Z,14.00
2022-10-23T23:16:55.126Z,14.00
2022-10-23T23:29:15.227Z,14.00
2022-10-23T23:48:58.285Z,14.10
2022-10-23T23:51:26.861Z,14.10
2022-10-23T23:58:52.869Z,14.10
